XAASP MMGL-MMLP
Flight info
| Callsign | XAASP |
|---|---|
| Flight time | 1h 14m |
| Altitude | 40000 |
| Route | NOTUP UJ12S TNY UT15 LAP |
| Aircraft | CL60/M-SBDE1E2E3FGHIJ1J4J5J7M3RWXYZ/LB1V1D1 |
Departure
| Time | 2026-04-22 22:19 |
|---|---|
| Airport | Guadalajara International Airport (MMGL) |
Arrival
| Time | 2026-04-22 23:33 |
|---|---|
| Airport | Manuel Márquez de León International Airport (MMLP) |
| Time | Latitude | Longitude | Altitude | Speed | Heading |
|---|---|---|---|---|---|
| 2026-04-22 21:36 | 20.52489 | -103.30608 | 5020 ft | 0 kts | 250° |
| 2026-04-22 22:05 | 20.52488 | -103.30609 | 5020 ft | 0 kts | 247° |
| 2026-04-22 22:05 | 20.52478 | -103.30615 | 5020 ft | 2 kts | 176° |
| 2026-04-22 22:05 | 20.52459 | -103.30603 | 5020 ft | 3 kts | 130° |
| 2026-04-22 22:06 | 20.52441 | -103.30570 | 5020 ft | 6 kts | 118° |
| 2026-04-22 22:06 | 20.52416 | -103.30531 | 5020 ft | 7 kts | 147° |
| 2026-04-22 22:06 | 20.52363 | -103.30542 | 5020 ft | 8 kts | 205° |
| 2026-04-22 22:06 | 20.52319 | -103.30563 | 5020 ft | 6 kts | 199° |
| 2026-04-22 22:07 | 20.52275 | -103.30547 | 5020 ft | 8 kts | 120° |
| 2026-04-22 22:07 | 20.52253 | -103.30482 | 5020 ft | 10 kts | 109° |
| 2026-04-22 22:07 | 20.52227 | -103.30402 | 5020 ft | 12 kts | 109° |
| 2026-04-22 22:07 | 20.52205 | -103.30333 | 5020 ft | 10 kts | 108° |
| 2026-04-22 22:08 | 20.52179 | -103.30254 | 5020 ft | 12 kts | 109° |
| 2026-04-22 22:08 | 20.52149 | -103.30163 | 5020 ft | 14 kts | 109° |
| 2026-04-22 22:08 | 20.52118 | -103.30067 | 5020 ft | 14 kts | 109° |
| 2026-04-22 22:08 | 20.52085 | -103.29963 | 5020 ft | 15 kts | 109° |
| 2026-04-22 22:09 | 20.52051 | -103.29878 | 5020 ft | 12 kts | 123° |
| 2026-04-22 22:09 | 20.51997 | -103.29797 | 5020 ft | 13 kts | 126° |
| 2026-04-22 22:09 | 20.51940 | -103.29716 | 5020 ft | 13 kts | 126° |
| 2026-04-22 22:09 | 20.51878 | -103.29626 | 5020 ft | 15 kts | 127° |
| 2026-04-22 22:10 | 20.51817 | -103.29537 | 5020 ft | 14 kts | 126° |
| 2026-04-22 22:10 | 20.51758 | -103.29450 | 5020 ft | 11 kts | 126° |
| 2026-04-22 22:10 | 20.51715 | -103.29388 | 5020 ft | 10 kts | 126° |
| 2026-04-22 22:10 | 20.51668 | -103.29321 | 5020 ft | 12 kts | 127° |
| 2026-04-22 22:11 | 20.51620 | -103.29250 | 5020 ft | 11 kts | 126° |
| 2026-04-22 22:11 | 20.51562 | -103.29202 | 5020 ft | 11 kts | 182° |
| 2026-04-22 22:11 | 20.51500 | -103.29227 | 5020 ft | 5 kts | 204° |
| 2026-04-22 22:11 | 20.51499 | -103.29227 | 5020 ft | 0 kts | 204° |
| 2026-04-22 22:17 | 20.51491 | -103.29231 | 5020 ft | 2 kts | 204° |
| 2026-04-22 22:17 | 20.51468 | -103.29242 | 5020 ft | 4 kts | 204° |
| 2026-04-22 22:18 | 20.51434 | -103.29260 | 5020 ft | 6 kts | 216° |
| 2026-04-22 22:18 | 20.51419 | -103.29301 | 5020 ft | 6 kts | 282° |
| 2026-04-22 22:18 | 20.51505 | -103.29506 | 5020 ft | 71 kts | 294° |
| 2026-04-22 22:18 | 20.51820 | -103.30253 | 5020 ft | 142 kts | 294° |
| 2026-04-22 22:19 | 20.52261 | -103.31319 | 5506 ft | 161 kts | 298° |
| 2026-04-22 22:19 | 20.52703 | -103.32411 | 6269 ft | 169 kts | 294° |
| 2026-04-22 22:19 | 20.53185 | -103.33616 | 6960 ft | 182 kts | 294° |
| 2026-04-22 22:19 | 20.53726 | -103.34897 | 7562 ft | 202 kts | 295° |
| 2026-04-22 22:20 | 20.54347 | -103.36364 | 8016 ft | 229 kts | 295° |
| 2026-04-22 22:20 | 20.55020 | -103.37959 | 8678 ft | 245 kts | 294° |
| 2026-04-22 22:20 | 20.55725 | -103.39637 | 9490 ft | 255 kts | 294° |
| 2026-04-22 22:20 | 20.56451 | -103.41367 | 10496 ft | 257 kts | 294° |
| 2026-04-22 22:21 | 20.57182 | -103.43110 | 11451 ft | 262 kts | 294° |
| 2026-04-22 22:21 | 20.57928 | -103.44893 | 12387 ft | 268 kts | 294° |
| 2026-04-22 22:21 | 20.58687 | -103.46721 | 13378 ft | 270 kts | 292° |
| 2026-04-22 22:21 | 20.59371 | -103.48624 | 14050 ft | 286 kts | 290° |
| 2026-04-22 22:22 | 20.60066 | -103.50665 | 14647 ft | 303 kts | 290° |
| 2026-04-22 22:22 | 20.60805 | -103.52832 | 15455 ft | 314 kts | 290° |
| 2026-04-22 22:22 | 20.61576 | -103.55094 | 15904 ft | 335 kts | 290° |
| 2026-04-22 22:22 | 20.62393 | -103.57491 | 16532 ft | 349 kts | 290° |
| 2026-04-22 22:23 | 20.63232 | -103.59949 | 17364 ft | 356 kts | 289° |
| 2026-04-22 22:23 | 20.64079 | -103.62434 | 18247 ft | 360 kts | 289° |
| 2026-04-22 22:23 | 20.64935 | -103.64947 | 19117 ft | 363 kts | 290° |
| 2026-04-22 22:23 | 20.65800 | -103.67485 | 19947 ft | 367 kts | 289° |
| 2026-04-22 22:24 | 20.66674 | -103.70049 | 20747 ft | 370 kts | 290° |
| 2026-04-22 22:24 | 20.67563 | -103.72659 | 21519 ft | 374 kts | 290° |
| 2026-04-22 22:24 | 20.68453 | -103.75271 | 22260 ft | 377 kts | 290° |
| 2026-04-22 22:24 | 20.69351 | -103.77910 | 22978 ft | 381 kts | 290° |
| 2026-04-22 22:25 | 20.70264 | -103.80595 | 23679 ft | 384 kts | 290° |
| 2026-04-22 22:25 | 20.71181 | -103.83292 | 24354 ft | 388 kts | 290° |
| 2026-04-22 22:25 | 20.72096 | -103.85983 | 24999 ft | 391 kts | 290° |
| 2026-04-22 22:25 | 20.73031 | -103.88738 | 25630 ft | 394 kts | 290° |
| 2026-04-22 22:26 | 20.73970 | -103.91504 | 26238 ft | 397 kts | 290° |
| 2026-04-22 22:26 | 20.74903 | -103.94253 | 26804 ft | 399 kts | 291° |
| 2026-04-22 22:26 | 20.75847 | -103.97038 | 27330 ft | 402 kts | 291° |
| 2026-04-22 22:26 | 20.76806 | -103.99866 | 27816 ft | 404 kts | 291° |
| 2026-04-22 22:27 | 20.77769 | -104.02707 | 28264 ft | 407 kts | 291° |
| 2026-04-22 22:27 | 20.78724 | -104.05531 | 28680 ft | 409 kts | 291° |
| 2026-04-22 22:27 | 20.79696 | -104.08401 | 29110 ft | 411 kts | 291° |
| 2026-04-22 22:27 | 20.80673 | -104.11293 | 29548 ft | 412 kts | 291° |
| 2026-04-22 22:28 | 20.81652 | -104.14190 | 29949 ft | 414 kts | 291° |
| 2026-04-22 22:28 | 20.82636 | -104.17103 | 30327 ft | 416 kts | 291° |
| 2026-04-22 22:28 | 20.83613 | -104.19997 | 30660 ft | 419 kts | 291° |
| 2026-04-22 22:28 | 20.84630 | -104.22950 | 30983 ft | 421 kts | 294° |
| 2026-04-22 22:29 | 20.86094 | -104.25671 | 31299 ft | 421 kts | 309° |
| 2026-04-22 22:29 | 20.88118 | -104.27923 | 31597 ft | 423 kts | 316° |
| 2026-04-22 22:29 | 20.90241 | -104.30074 | 31903 ft | 425 kts | 316° |
| 2026-04-22 22:29 | 20.92404 | -104.32278 | 32205 ft | 427 kts | 316° |
| 2026-04-22 22:30 | 20.94554 | -104.34473 | 32519 ft | 428 kts | 316° |
| 2026-04-22 22:30 | 20.96713 | -104.36674 | 32808 ft | 429 kts | 316° |
| 2026-04-22 22:30 | 20.98861 | -104.38866 | 33167 ft | 429 kts | 316° |
| 2026-04-22 22:30 | 21.00996 | -104.41046 | 33565 ft | 427 kts | 316° |
| 2026-04-22 22:31 | 21.03146 | -104.43242 | 33984 ft | 424 kts | 316° |
| 2026-04-22 22:31 | 21.05286 | -104.45428 | 34372 ft | 422 kts | 316° |
| 2026-04-22 22:31 | 21.07406 | -104.47594 | 34729 ft | 421 kts | 316° |
| 2026-04-22 22:31 | 21.09521 | -104.49757 | 35063 ft | 420 kts | 316° |
| 2026-04-22 22:32 | 21.11630 | -104.51914 | 35379 ft | 420 kts | 316° |
| 2026-04-22 22:32 | 21.13745 | -104.54077 | 35697 ft | 419 kts | 316° |
| 2026-04-22 22:32 | 21.15848 | -104.56229 | 36007 ft | 419 kts | 316° |
| 2026-04-22 22:32 | 21.17949 | -104.58380 | 36311 ft | 418 kts | 316° |
| 2026-04-22 22:33 | 21.20040 | -104.60522 | 36606 ft | 417 kts | 315° |
| 2026-04-22 22:33 | 21.22133 | -104.62666 | 36895 ft | 417 kts | 315° |
| 2026-04-22 22:33 | 21.24231 | -104.64816 | 37206 ft | 415 kts | 315° |
| 2026-04-22 22:33 | 21.26329 | -104.66967 | 37505 ft | 414 kts | 315° |
| 2026-04-22 22:34 | 21.28386 | -104.69078 | 37783 ft | 414 kts | 315° |
| 2026-04-22 22:34 | 21.30482 | -104.71228 | 38062 ft | 413 kts | 315° |
| 2026-04-22 22:34 | 21.32561 | -104.73363 | 38331 ft | 413 kts | 315° |
| 2026-04-22 22:34 | 21.34610 | -104.75467 | 38586 ft | 412 kts | 315° |
| 2026-04-22 22:35 | 21.36679 | -104.77593 | 38835 ft | 412 kts | 315° |
| 2026-04-22 22:35 | 21.38744 | -104.79715 | 39076 ft | 411 kts | 314° |
| 2026-04-22 22:35 | 21.40793 | -104.81836 | 39318 ft | 410 kts | 313° |
| 2026-04-22 22:35 | 21.42653 | -104.84135 | 39570 ft | 408 kts | 306° |
| 2026-04-22 22:36 | 21.44193 | -104.86727 | 39788 ft | 407 kts | 298° |
| 2026-04-22 22:36 | 21.45540 | -104.89389 | 39983 ft | 407 kts | 298° |
| 2026-04-22 22:36 | 21.46901 | -104.92082 | 40132 ft | 408 kts | 298° |
| 2026-04-22 22:37 | 21.49637 | -104.97488 | 40139 ft | 416 kts | 298° |
| 2026-04-22 22:37 | 21.52407 | -105.02964 | 40137 ft | 420 kts | 298° |
| 2026-04-22 22:38 | 21.55208 | -105.08506 | 40130 ft | 419 kts | 298° |
| 2026-04-22 22:38 | 21.57976 | -105.13984 | 40130 ft | 418 kts | 298° |
| 2026-04-22 22:39 | 21.60740 | -105.19461 | 40134 ft | 417 kts | 298° |
| 2026-04-22 22:39 | 21.63489 | -105.24912 | 40134 ft | 416 kts | 298° |
| 2026-04-22 22:40 | 21.66257 | -105.30404 | 40134 ft | 416 kts | 298° |
| 2026-04-22 22:40 | 21.69006 | -105.35864 | 40136 ft | 416 kts | 298° |
| 2026-04-22 22:41 | 21.71750 | -105.41319 | 40134 ft | 416 kts | 298° |
| 2026-04-22 22:41 | 21.74496 | -105.46783 | 40136 ft | 415 kts | 298° |
| 2026-04-22 22:42 | 21.77223 | -105.52219 | 40134 ft | 415 kts | 298° |
| 2026-04-22 22:42 | 21.79959 | -105.57677 | 40134 ft | 414 kts | 298° |
| 2026-04-22 22:43 | 21.82693 | -105.63138 | 40133 ft | 414 kts | 299° |
| 2026-04-22 22:43 | 21.85415 | -105.68581 | 40134 ft | 413 kts | 298° |
| 2026-04-22 22:44 | 21.88139 | -105.74033 | 40133 ft | 413 kts | 298° |
| 2026-04-22 22:44 | 21.90842 | -105.79446 | 40133 ft | 412 kts | 298° |
| 2026-04-22 22:45 | 21.93551 | -105.84880 | 40133 ft | 412 kts | 298° |
| 2026-04-22 22:45 | 21.96259 | -105.90315 | 40120 ft | 412 kts | 298° |
| 2026-04-22 22:46 | 21.98957 | -105.95737 | 40108 ft | 411 kts | 298° |
| 2026-04-22 22:46 | 22.01647 | -106.01149 | 40096 ft | 411 kts | 298° |
| 2026-04-22 22:47 | 22.04343 | -106.06576 | 40083 ft | 411 kts | 298° |
| 2026-04-22 22:47 | 22.07041 | -106.12015 | 40079 ft | 411 kts | 298° |
| 2026-04-22 22:48 | 22.09738 | -106.17457 | 40078 ft | 411 kts | 298° |
| 2026-04-22 22:48 | 22.12425 | -106.22884 | 40076 ft | 412 kts | 298° |
| 2026-04-22 22:49 | 22.15128 | -106.28350 | 40073 ft | 412 kts | 298° |
| 2026-04-22 22:49 | 22.17820 | -106.33799 | 40071 ft | 412 kts | 298° |
| 2026-04-22 22:50 | 22.20510 | -106.39249 | 40068 ft | 412 kts | 298° |
| 2026-04-22 22:50 | 22.23193 | -106.44693 | 40067 ft | 412 kts | 298° |
| 2026-04-22 22:51 | 22.25881 | -106.50150 | 40065 ft | 411 kts | 298° |
| 2026-04-22 22:51 | 22.28547 | -106.55570 | 40065 ft | 411 kts | 298° |
| 2026-04-22 22:52 | 22.31218 | -106.61005 | 40065 ft | 410 kts | 298° |
| 2026-04-22 22:52 | 22.33885 | -106.66438 | 40066 ft | 410 kts | 298° |
| 2026-04-22 22:53 | 22.36562 | -106.71896 | 40066 ft | 411 kts | 298° |
| 2026-04-22 22:53 | 22.39229 | -106.77341 | 40068 ft | 411 kts | 298° |
| 2026-04-22 22:54 | 22.41903 | -106.82806 | 40066 ft | 410 kts | 298° |
| 2026-04-22 22:54 | 22.44552 | -106.88225 | 40068 ft | 409 kts | 298° |
| 2026-04-22 22:55 | 22.47201 | -106.93651 | 40070 ft | 409 kts | 298° |
| 2026-04-22 22:55 | 22.51180 | -107.01811 | 40072 ft | 409 kts | 298° |
| 2026-04-22 22:56 | 22.53822 | -107.07236 | 40072 ft | 409 kts | 298° |
| 2026-04-22 22:56 | 22.56479 | -107.12698 | 40072 ft | 409 kts | 298° |
| 2026-04-22 22:57 | 22.59121 | -107.18134 | 40072 ft | 409 kts | 298° |
| 2026-04-22 22:57 | 22.61759 | -107.23569 | 40072 ft | 409 kts | 298° |
| 2026-04-22 22:58 | 22.64398 | -107.29012 | 40072 ft | 409 kts | 298° |
| 2026-04-22 22:58 | 22.67038 | -107.34462 | 40072 ft | 408 kts | 298° |
| 2026-04-22 22:59 | 22.69670 | -107.39902 | 40072 ft | 408 kts | 298° |
| 2026-04-22 22:59 | 22.72302 | -107.45349 | 40072 ft | 408 kts | 298° |
| 2026-04-22 23:00 | 22.74919 | -107.50769 | 40073 ft | 408 kts | 298° |
| 2026-04-22 23:00 | 22.77546 | -107.56216 | 40074 ft | 409 kts | 298° |
| 2026-04-22 23:01 | 22.80174 | -107.61674 | 40075 ft | 409 kts | 298° |
| 2026-04-22 23:01 | 22.82809 | -107.67149 | 40077 ft | 409 kts | 298° |
| 2026-04-22 23:02 | 22.85424 | -107.72590 | 40077 ft | 409 kts | 298° |
| 2026-04-22 23:02 | 22.88063 | -107.78085 | 40078 ft | 409 kts | 298° |
| 2026-04-22 23:03 | 22.90673 | -107.83529 | 40078 ft | 409 kts | 298° |
| 2026-04-22 23:03 | 22.93298 | -107.89008 | 40077 ft | 408 kts | 298° |
| 2026-04-22 23:04 | 22.95911 | -107.94468 | 40078 ft | 408 kts | 298° |
| 2026-04-22 23:04 | 22.98536 | -107.99959 | 40078 ft | 408 kts | 297° |
| 2026-04-22 23:05 | 23.01131 | -108.05395 | 40081 ft | 408 kts | 297° |
| 2026-04-22 23:05 | 23.03752 | -108.10889 | 40085 ft | 408 kts | 297° |
| 2026-04-22 23:06 | 23.06353 | -108.16350 | 40088 ft | 409 kts | 297° |
| 2026-04-22 23:06 | 23.08971 | -108.21849 | 40090 ft | 408 kts | 297° |
| 2026-04-22 23:07 | 23.11559 | -108.27294 | 40091 ft | 408 kts | 297° |
| 2026-04-22 23:07 | 23.14175 | -108.32803 | 40091 ft | 408 kts | 297° |
| 2026-04-22 23:08 | 23.16773 | -108.38281 | 40091 ft | 408 kts | 297° |
| 2026-04-22 23:08 | 23.19361 | -108.43743 | 40091 ft | 407 kts | 297° |
| 2026-04-22 23:09 | 23.21961 | -108.49239 | 40091 ft | 407 kts | 297° |
| 2026-04-22 23:09 | 23.23263 | -108.51992 | 39950 ft | 411 kts | 297° |
| 2026-04-22 23:09 | 23.24568 | -108.54752 | 39466 ft | 415 kts | 297° |
| 2026-04-22 23:10 | 23.25890 | -108.57552 | 38946 ft | 412 kts | 297° |
| 2026-04-22 23:10 | 23.27189 | -108.60304 | 38407 ft | 409 kts | 297° |
| 2026-04-22 23:10 | 23.28478 | -108.63038 | 37877 ft | 408 kts | 297° |
| 2026-04-22 23:10 | 23.29775 | -108.65788 | 37338 ft | 410 kts | 297° |
| 2026-04-22 23:11 | 23.31083 | -108.68564 | 36794 ft | 411 kts | 297° |
| 2026-04-22 23:11 | 23.32386 | -108.71332 | 36248 ft | 413 kts | 297° |
| 2026-04-22 23:11 | 23.33695 | -108.74114 | 35699 ft | 415 kts | 297° |
| 2026-04-22 23:11 | 23.35025 | -108.76942 | 35142 ft | 417 kts | 297° |
| 2026-04-22 23:12 | 23.36340 | -108.79739 | 34591 ft | 420 kts | 297° |
| 2026-04-22 23:12 | 23.37666 | -108.82561 | 34033 ft | 422 kts | 297° |
| 2026-04-22 23:12 | 23.39004 | -108.85410 | 33471 ft | 424 kts | 297° |
| 2026-04-22 23:12 | 23.40346 | -108.88270 | 32906 ft | 426 kts | 297° |
| 2026-04-22 23:13 | 23.41702 | -108.91164 | 32333 ft | 428 kts | 297° |
| 2026-04-22 23:13 | 23.43052 | -108.94044 | 31765 ft | 430 kts | 297° |
| 2026-04-22 23:13 | 23.44412 | -108.96948 | 31192 ft | 431 kts | 297° |
| 2026-04-22 23:13 | 23.45776 | -108.99861 | 30617 ft | 433 kts | 297° |
| 2026-04-22 23:14 | 23.47138 | -109.02773 | 30042 ft | 432 kts | 297° |
| 2026-04-22 23:14 | 23.48509 | -109.05707 | 29460 ft | 429 kts | 297° |
| 2026-04-22 23:14 | 23.49853 | -109.08583 | 28894 ft | 425 kts | 297° |
| 2026-04-22 23:14 | 23.51182 | -109.11429 | 28334 ft | 423 kts | 296° |
| 2026-04-22 23:15 | 23.52523 | -109.14303 | 27770 ft | 421 kts | 296° |
| 2026-04-22 23:15 | 23.53839 | -109.17123 | 27217 ft | 419 kts | 296° |
| 2026-04-22 23:15 | 23.55158 | -109.19952 | 26661 ft | 417 kts | 296° |
| 2026-04-22 23:15 | 23.56467 | -109.22761 | 26110 ft | 416 kts | 296° |
| 2026-04-22 23:16 | 23.57762 | -109.25540 | 25562 ft | 414 kts | 296° |
| 2026-04-22 23:16 | 23.59069 | -109.28348 | 25011 ft | 412 kts | 296° |
| 2026-04-22 23:16 | 23.60361 | -109.31127 | 24466 ft | 411 kts | 295° |
| 2026-04-22 23:16 | 23.61638 | -109.33873 | 23925 ft | 409 kts | 295° |
| 2026-04-22 23:17 | 23.62931 | -109.36656 | 23380 ft | 407 kts | 295° |
| 2026-04-22 23:17 | 23.64208 | -109.39407 | 22838 ft | 405 kts | 295° |
| 2026-04-22 23:17 | 23.65478 | -109.42142 | 22303 ft | 402 kts | 295° |
| 2026-04-22 23:17 | 23.66730 | -109.44842 | 21770 ft | 399 kts | 295° |
| 2026-04-22 23:18 | 23.67983 | -109.47544 | 21240 ft | 396 kts | 295° |
| 2026-04-22 23:18 | 23.69203 | -109.50176 | 20724 ft | 393 kts | 295° |
| 2026-04-22 23:18 | 23.70444 | -109.52856 | 20198 ft | 390 kts | 295° |
| 2026-04-22 23:18 | 23.71649 | -109.55458 | 19688 ft | 387 kts | 295° |
| 2026-04-22 23:19 | 23.72864 | -109.58086 | 19171 ft | 384 kts | 295° |
| 2026-04-22 23:19 | 23.74050 | -109.60651 | 18658 ft | 381 kts | 295° |
| 2026-04-22 23:19 | 23.75240 | -109.63225 | 18158 ft | 378 kts | 295° |
| 2026-04-22 23:19 | 23.76427 | -109.65797 | 17653 ft | 376 kts | 295° |
| 2026-04-22 23:20 | 23.77587 | -109.68310 | 17161 ft | 373 kts | 295° |
| 2026-04-22 23:20 | 23.78761 | -109.70856 | 16664 ft | 371 kts | 295° |
| 2026-04-22 23:20 | 23.79906 | -109.73341 | 16176 ft | 368 kts | 295° |
| 2026-04-22 23:20 | 23.81056 | -109.75836 | 15688 ft | 366 kts | 295° |
| 2026-04-22 23:21 | 23.82201 | -109.78323 | 15199 ft | 364 kts | 295° |
| 2026-04-22 23:21 | 23.83333 | -109.80782 | 14717 ft | 362 kts | 295° |
| 2026-04-22 23:21 | 23.84469 | -109.83251 | 14231 ft | 360 kts | 295° |
| 2026-04-22 23:21 | 23.85572 | -109.85648 | 13762 ft | 354 kts | 295° |
| 2026-04-22 23:22 | 23.86672 | -109.88039 | 13291 ft | 346 kts | 294° |
| 2026-04-22 23:22 | 23.87741 | -109.90366 | 12836 ft | 337 kts | 294° |
| 2026-04-22 23:22 | 23.88772 | -109.92609 | 12397 ft | 329 kts | 294° |
| 2026-04-22 23:22 | 23.89786 | -109.94817 | 11964 ft | 321 kts | 294° |
| 2026-04-22 23:23 | 23.90776 | -109.96974 | 11544 ft | 313 kts | 294° |
| 2026-04-22 23:23 | 23.91743 | -109.99080 | 11132 ft | 307 kts | 294° |
| 2026-04-22 23:23 | 23.92694 | -110.01155 | 10726 ft | 300 kts | 294° |
| 2026-04-22 23:23 | 23.93615 | -110.03164 | 10335 ft | 294 kts | 294° |
| 2026-04-22 23:24 | 23.94530 | -110.05161 | 9944 ft | 288 kts | 294° |
| 2026-04-22 23:24 | 23.95415 | -110.07093 | 9567 ft | 284 kts | 294° |
| 2026-04-22 23:24 | 23.96298 | -110.09025 | 9192 ft | 285 kts | 294° |
| 2026-04-22 23:24 | 23.97188 | -110.10971 | 8813 ft | 286 kts | 294° |
| 2026-04-22 23:25 | 23.98075 | -110.12914 | 8432 ft | 285 kts | 294° |
| 2026-04-22 23:25 | 23.98722 | -110.14920 | 8052 ft | 276 kts | 276° |
| 2026-04-22 23:25 | 23.98647 | -110.16995 | 7419 ft | 276 kts | 254° |
| 2026-04-22 23:25 | 23.97856 | -110.18878 | 7007 ft | 269 kts | 234° |
| 2026-04-22 23:26 | 23.96663 | -110.20408 | 6661 ft | 261 kts | 225° |
| 2026-04-22 23:26 | 23.95390 | -110.21790 | 6314 ft | 255 kts | 226° |
| 2026-04-22 23:26 | 23.94236 | -110.23239 | 5976 ft | 249 kts | 231° |
| 2026-04-22 23:26 | 23.93243 | -110.24751 | 5649 ft | 246 kts | 236° |
| 2026-04-22 23:27 | 23.92378 | -110.26373 | 5323 ft | 246 kts | 242° |
| 2026-04-22 23:27 | 23.91641 | -110.28085 | 4995 ft | 247 kts | 247° |
| 2026-04-22 23:27 | 23.91054 | -110.29857 | 4667 ft | 247 kts | 252° |
| 2026-04-22 23:27 | 23.90624 | -110.31669 | 4342 ft | 242 kts | 258° |
| 2026-04-22 23:28 | 23.90367 | -110.33410 | 4219 ft | 223 kts | 262° |
| 2026-04-22 23:28 | 23.90245 | -110.35098 | 3724 ft | 221 kts | 268° |
| 2026-04-22 23:28 | 23.90271 | -110.36722 | 3471 ft | 209 kts | 277° |
| 2026-04-22 23:28 | 23.90849 | -110.38117 | 3084 ft | 192 kts | 311° |
| 2026-04-22 23:29 | 23.91928 | -110.38816 | 2667 ft | 181 kts | 344° |
| 2026-04-22 23:29 | 23.93168 | -110.38842 | 2191 ft | 176 kts | 8° |
| 2026-04-22 23:29 | 23.94274 | -110.38622 | 2001 ft | 144 kts | 9° |
| 2026-04-22 23:29 | 23.95241 | -110.38432 | 2012 ft | 140 kts | 9° |
| 2026-04-22 23:30 | 23.96196 | -110.38247 | 1973 ft | 136 kts | 9° |
| 2026-04-22 23:30 | 23.97132 | -110.38066 | 1824 ft | 137 kts | 9° |
| 2026-04-22 23:30 | 23.98045 | -110.37890 | 1639 ft | 132 kts | 8° |
| 2026-04-22 23:30 | 23.98944 | -110.37717 | 1489 ft | 132 kts | 8° |
| 2026-04-22 23:31 | 23.99850 | -110.37591 | 1316 ft | 130 kts | 5° |
| 2026-04-22 23:31 | 24.00755 | -110.37453 | 1146 ft | 130 kts | 7° |
| 2026-04-22 23:31 | 24.01645 | -110.37291 | 957 ft | 129 kts | 8° |
| 2026-04-22 23:31 | 24.02530 | -110.37122 | 795 ft | 129 kts | 8° |
| 2026-04-22 23:32 | 24.03404 | -110.36953 | 626 ft | 129 kts | 8° |
| 2026-04-22 23:32 | 24.04293 | -110.36769 | 470 ft | 128 kts | 11° |
| 2026-04-22 23:32 | 24.05153 | -110.36574 | 318 ft | 125 kts | 9° |
| 2026-04-22 23:32 | 24.06004 | -110.36437 | 139 ft | 123 kts | 5° |
| 2026-04-22 23:33 | 24.06796 | -110.36324 | 74 ft | 95 kts | 8° |
| 2026-04-22 23:33 | 24.07305 | -110.36249 | 74 ft | 51 kts | 8° |
| 2026-04-22 23:33 | 24.07562 | -110.36211 | 74 ft | 29 kts | 6° |
| 2026-04-22 23:33 | 24.07694 | -110.36193 | 74 ft | 7 kts | 4° |
| 2026-04-22 23:34 | 24.07740 | -110.36221 | 74 ft | 8 kts | 290° |
| 2026-04-22 23:34 | 24.07750 | -110.36295 | 74 ft | 11 kts | 277° |
| 2026-04-22 23:34 | 24.07760 | -110.36391 | 74 ft | 12 kts | 276° |
| 2026-04-22 23:34 | 24.07768 | -110.36472 | 74 ft | 8 kts | 276° |
| 2026-04-22 23:35 | 24.07773 | -110.36519 | 74 ft | 2 kts | 272° |
| 2026-04-22 23:35 | 24.07764 | -110.36553 | 74 ft | 6 kts | 255° |
| 2026-04-22 23:35 | 24.07764 | -110.36588 | 74 ft | 3 kts | 279° |
| 2026-04-22 23:35 | 24.07768 | -110.36618 | 74 ft | 2 kts | 276° |
| 2026-04-22 23:36 | 24.07768 | -110.36620 | 74 ft | 0 kts | 277° |